createdAt,value
2019-02-06T00:01:48.066Z,4.53
2019-02-06T00:04:18.263Z,6.10
2019-02-06T00:06:46.973Z,6.23
2019-02-06T00:09:16.785Z,7.60
2019-02-06T00:11:45.464Z,4.53
2019-02-06T00:14:14.165Z,5.50
2019-02-06T00:16:44.496Z,6.37
2019-02-06T00:19:13.272Z,4.53
2019-02-06T00:21:42.061Z,5.67
2019-02-06T00:24:10.856Z,8.87
2019-02-06T00:26:39.541Z,5.50
2019-02-06T00:29:08.202Z,5.73
2019-02-06T00:31:36.919Z,6.60
2019-02-06T00:34:05.713Z,4.13
2019-02-06T00:36:34.793Z,4.90
2019-02-06T00:39:04.463Z,2.50
2019-02-06T00:41:33.193Z,3.80
2019-02-06T00:44:01.881Z,3.87
2019-02-06T00:46:30.667Z,13.23
2019-02-06T00:48:59.366Z,5.83
2019-02-06T00:51:28.364Z,6.00
2019-02-06T00:53:57.047Z,3.23
2019-02-06T00:56:25.934Z,4.47
2019-02-06T00:58:54.713Z,3.53
2019-02-06T01:01:23.505Z,6.53
2019-02-06T01:03:52.191Z,2.67
2019-02-06T01:06:20.873Z,1.73
2019-02-06T01:08:49.569Z,2.27
2019-02-06T01:11:18.347Z,4.30
2019-02-06T01:13:47.040Z,2.50
2019-02-06T01:16:15.724Z,2.93
2019-02-06T01:18:46.049Z,2.53
2019-02-06T01:21:14.741Z,3.47
2019-02-06T01:23:43.955Z,5.37
2019-02-06T01:26:12.616Z,5.63
2019-02-06T01:28:41.432Z,8.07
2019-02-06T01:31:11.017Z,11.67
2019-02-06T01:33:39.804Z,4.20
2019-02-06T01:36:08.488Z,8.60
2019-02-06T01:38:37.340Z,5.93
2019-02-06T01:41:05.971Z,3.60
2019-02-06T01:43:34.675Z,10.63
2019-02-06T01:46:03.484Z,3.93
2019-02-06T01:48:32.233Z,4.97
2019-02-06T01:51:00.916Z,13.47
2019-02-06T01:53:29.605Z,6.80
2019-02-06T01:55:58.902Z,8.07
2019-02-06T01:58:27.584Z,4.93
2019-02-06T02:00:56.278Z,8.53
2019-02-06T02:03:24.977Z,6.67
2019-02-06T02:06:01.634Z,5.37
2019-02-06T02:08:24.180Z,5.03
2019-02-06T02:10:54.719Z,5.90
2019-02-06T02:13:23.599Z,9.13
2019-02-06T02:15:52.287Z,3.80
2019-02-06T02:18:21.048Z,4.37
2019-02-06T02:20:49.758Z,4.20
2019-02-06T02:23:18.558Z,6.63
2019-02-06T02:25:47.443Z,4.20
2019-02-06T02:28:16.436Z,6.90
2019-02-06T02:30:46.659Z,6.40
2019-02-06T02:33:15.458Z,5.00
2019-02-06T02:35:45.780Z,4.67
2019-02-06T02:38:14.566Z,6.73
2019-02-06T02:40:43.248Z,6.17
2019-02-06T02:43:12.347Z,5.20
2019-02-06T02:45:41.027Z,4.20
2019-02-06T02:48:09.820Z,3.03
2019-02-06T02:50:38.526Z,4.33
2019-02-06T02:53:07.315Z,6.17
2019-02-06T02:55:35.980Z,5.77
2019-02-06T02:58:06.712Z,6.23
2019-02-06T03:00:39.801Z,9.23
2019-02-06T03:03:28.355Z,3.20
2019-02-06T03:05:57.138Z,4.83
2019-02-06T03:08:26.054Z,6.73
2019-02-06T03:10:54.708Z,6.80
2019-02-06T03:13:23.475Z,3.77
2019-02-06T03:15:52.400Z,4.53
2019-02-06T03:18:21.091Z,2.77
2019-02-06T03:20:49.784Z,3.03
2019-02-06T03:23:18.384Z,5.60
2019-02-06T03:25:47.422Z,6.27
2019-02-06T03:28:16.142Z,9.10
2019-02-06T03:30:44.847Z,3.53
2019-02-06T03:33:13.537Z,2.70
2019-02-06T03:35:43.777Z,2.47
2019-02-06T03:38:12.426Z,3.27
2019-02-06T03:40:41.417Z,3.00
2019-02-06T03:43:10.104Z,2.10
2019-02-06T03:45:38.895Z,2.70
2019-02-06T03:48:07.598Z,3.53
2019-02-06T03:50:36.469Z,4.67
2019-02-06T03:53:05.459Z,3.23
2019-02-06T03:55:34.151Z,6.30
2019-02-06T03:58:02.950Z,8.97
2019-02-06T04:00:31.623Z,3.10
2019-02-06T04:03:00.413Z,3.10
2019-02-06T04:05:29.102Z,3.00
2019-02-06T04:07:57.786Z,4.63
2019-02-06T04:10:26.586Z,3.80
2019-02-06T04:12:55.791Z,8.07
2019-02-06T04:15:24.562Z,2.93
2019-02-06T04:17:54.442Z,7.43
2019-02-06T04:20:23.449Z,14.60
2019-02-06T04:22:53.284Z,7.50
2019-02-06T04:25:21.973Z,5.43
2019-02-06T04:27:50.962Z,3.23
2019-02-06T04:30:21.911Z,5.60
2019-02-06T04:32:50.590Z,4.73
2019-02-06T04:35:19.286Z,8.13
2019-02-06T04:37:48.077Z,2.23
2019-02-06T04:40:20.643Z,3.83
2019-02-06T04:42:49.675Z,4.33
2019-02-06T04:45:19.878Z,20.00
2019-02-06T04:47:48.954Z,6.20
2019-02-06T04:50:20.718Z,3.10
2019-02-06T04:52:49.517Z,3.13
2019-02-06T04:55:19.012Z,4.20
2019-02-06T04:57:48.308Z,4.43
2019-02-06T05:00:25.729Z,6.30
2019-02-06T05:02:54.694Z,5.67
2019-02-06T05:05:23.379Z,6.87
2019-02-06T05:07:52.118Z,6.63
2019-02-06T05:10:20.880Z,5.50
2019-02-06T05:12:49.846Z,3.70
2019-02-06T05:15:19.149Z,7.40
2019-02-06T05:17:47.826Z,12.73
2019-02-06T05:20:37.061Z,5.07
2019-02-06T05:23:07.401Z,3.23
2019-02-06T05:25:36.015Z,3.90
2019-02-06T05:28:05.145Z,3.27
2019-02-06T05:30:33.866Z,3.30
2019-02-06T05:33:02.548Z,3.93
2019-02-06T05:35:31.172Z,5.53
2019-02-06T05:38:00.078Z,4.87
2019-02-06T05:40:30.103Z,6.40
2019-02-06T05:42:58.942Z,6.90
2019-02-06T05:45:27.723Z,5.60
2019-02-06T05:47:56.443Z,4.47
2019-02-06T05:50:25.273Z,2.97
2019-02-06T05:52:53.889Z,4.17
2019-02-06T05:55:22.501Z,4.07
2019-02-06T05:57:51.195Z,2.53
2019-02-06T06:00:23.933Z,3.00
2019-02-06T06:02:52.966Z,3.23
2019-02-06T06:05:21.748Z,6.13
2019-02-06T06:07:50.385Z,3.80
2019-02-06T06:10:19.774Z,3.77
2019-02-06T06:12:48.472Z,6.03
2019-02-06T06:15:19.197Z,4.20
2019-02-06T06:17:47.907Z,5.03
2019-02-06T06:20:21.000Z,7.60
2019-02-06T06:22:49.736Z,7.20
2019-02-06T06:25:20.168Z,7.70
2019-02-06T06:27:49.328Z,6.20
2019-02-06T06:30:20.694Z,3.63
2019-02-06T06:32:49.502Z,20.43
2019-02-06T06:35:18.121Z,14.13
2019-02-06T06:37:57.653Z,5.40
2019-02-06T06:40:22.837Z,7.20
2019-02-06T06:42:51.709Z,4.10
2019-02-06T06:45:25.216Z,14.00
2019-02-06T06:47:53.824Z,17.93
2019-02-06T06:50:24.162Z,4.17
2019-02-06T06:52:53.332Z,5.23
2019-02-06T06:55:22.497Z,8.23
2019-02-06T06:57:51.199Z,10.70
2019-02-06T07:00:28.552Z,9.77
2019-02-06T07:02:57.221Z,7.57
2019-02-06T07:05:25.841Z,10.67
2019-02-06T07:07:54.781Z,12.07
2019-02-06T07:10:23.784Z,20.87
2019-02-06T07:12:52.541Z,12.00
2019-02-06T07:15:29.660Z,21.53
2019-02-06T07:17:58.389Z,26.73
2019-02-06T07:20:27.160Z,51.93
2019-02-06T07:22:55.775Z,21.90
2019-02-06T07:25:24.458Z,24.17
2019-02-06T07:27:53.143Z,12.83
2019-02-06T07:30:30.653Z,36.20
2019-02-06T07:32:59.329Z,25.30
2019-02-06T07:35:28.063Z,31.43
2019-02-06T07:37:59.347Z,36.17
2019-02-06T07:40:28.044Z,44.17
2019-02-06T07:42:56.766Z,126.83
2019-02-06T07:45:25.416Z,66.70
2019-02-06T07:47:54.092Z,46.77
2019-02-06T07:50:28.386Z,26.13
2019-02-06T07:52:57.568Z,33.50
2019-02-06T07:55:26.286Z,28.43
2019-02-06T07:57:55.006Z,49.50
2019-02-06T08:00:23.713Z,35.70
2019-02-06T08:02:53.523Z,58.13
2019-02-06T08:05:22.699Z,43.60
2019-02-06T08:07:52.003Z,58.63
2019-02-06T08:10:32.589Z,57.47
2019-02-06T08:13:02.652Z,50.23
2019-02-06T08:15:31.288Z,38.73
2019-02-06T08:17:59.952Z,29.13
2019-02-06T08:20:28.684Z,31.37
2019-02-06T08:22:57.376Z,37.73
2019-02-06T08:25:26.668Z,36.50
2019-02-06T08:27:55.302Z,28.50
2019-02-06T08:30:26.445Z,45.03
2019-02-06T08:32:55.165Z,35.47
2019-02-06T08:35:23.799Z,35.20
2019-02-06T08:37:52.993Z,49.57
2019-02-06T08:40:27.395Z,74.10
2019-02-06T08:42:56.037Z,48.20
2019-02-06T08:45:24.717Z,45.63
2019-02-06T08:47:53.338Z,57.37
2019-02-06T08:50:22.999Z,50.53
2019-02-06T08:52:51.614Z,49.53
2019-02-06T08:55:32.582Z,53.20
2019-02-06T08:58:02.189Z,66.47
2019-02-06T09:00:36.267Z,46.77
2019-02-06T09:03:07.558Z,44.57
2019-02-06T09:05:36.270Z,42.73
2019-02-06T09:08:05.251Z,30.40
2019-02-06T09:10:34.020Z,36.90
2019-02-06T09:13:02.916Z,26.80
2019-02-06T09:15:31.595Z,20.83
2019-02-06T09:18:00.486Z,15.57
2019-02-06T09:20:30.300Z,17.87
2019-02-06T09:22:59.323Z,16.73
2019-02-06T09:25:29.351Z,28.57
2019-02-06T09:27:58.746Z,17.00
2019-02-06T09:30:32.829Z,23.37
2019-02-06T09:33:01.860Z,24.17
2019-02-06T09:35:32.053Z,25.57
2019-02-06T09:38:00.695Z,19.97
2019-02-06T09:40:33.706Z,25.93
2019-02-06T09:43:02.401Z,24.07
2019-02-06T09:45:31.087Z,22.13
2019-02-06T09:47:59.793Z,18.47
2019-02-06T09:50:31.089Z,18.77
2019-02-06T09:52:59.801Z,21.53
2019-02-06T09:55:28.594Z,35.80
2019-02-06T09:58:01.074Z,37.00
2019-02-06T10:00:34.891Z,39.27
2019-02-06T10:03:04.138Z,35.27
2019-02-06T10:05:32.812Z,28.67
2019-02-06T10:08:01.499Z,39.70
2019-02-06T10:10:30.690Z,21.17
2019-02-06T10:12:59.303Z,30.20
2019-02-06T10:15:30.891Z,26.70
2019-02-06T10:17:59.969Z,31.13
2019-02-06T10:20:31.335Z,26.23
2019-02-06T10:23:00.120Z,33.30
2019-02-06T10:25:30.663Z,27.33
2019-02-06T10:27:59.338Z,29.70
2019-02-06T10:30:37.162Z,26.17
2019-02-06T10:33:06.016Z,32.70
2019-02-06T10:35:34.654Z,32.53
2019-02-06T10:38:03.267Z,33.70
2019-02-06T10:40:32.066Z,26.70
2019-02-06T10:43:00.847Z,26.83
2019-02-06T10:45:29.524Z,14.03
2019-02-06T10:47:58.514Z,15.83
2019-02-06T10:50:32.639Z,11.53
2019-02-06T10:53:01.254Z,16.17
2019-02-06T10:55:30.175Z,17.23
2019-02-06T10:57:58.763Z,19.00
2019-02-06T11:00:36.191Z,20.37
2019-02-06T11:03:05.415Z,17.30
2019-02-06T11:05:34.201Z,26.17
2019-02-06T11:08:02.805Z,23.47
2019-02-06T11:10:31.467Z,17.87
2019-02-06T11:13:00.082Z,28.37
2019-02-06T11:15:28.860Z,24.43
2019-02-06T11:17:57.464Z,17.20
2019-02-06T11:20:28.620Z,16.87
2019-02-06T11:22:59.307Z,11.13
2019-02-06T11:25:27.985Z,14.97
2019-02-06T11:27:56.596Z,9.43
2019-02-06T11:30:27.897Z,12.00
2019-02-06T11:32:56.562Z,13.93
2019-02-06T11:35:25.298Z,15.57
2019-02-06T11:37:54.095Z,12.07
2019-02-06T11:40:24.753Z,10.63
2019-02-06T11:42:55.909Z,8.77
2019-02-06T11:45:32.628Z,14.27
2019-02-06T11:48:01.402Z,21.53
2019-02-06T11:50:43.224Z,11.10
2019-02-06T11:53:14.435Z,11.93
2019-02-06T11:55:43.134Z,17.60
2019-02-06T11:58:11.749Z,14.43
2019-02-06T12:00:42.797Z,14.13
2019-02-06T12:03:11.442Z,22.67
2019-02-06T12:05:40.095Z,9.83
2019-02-06T12:08:08.768Z,13.70
2019-02-06T12:10:37.381Z,8.83
2019-02-06T12:13:06.543Z,11.27
2019-02-06T12:15:37.616Z,11.07
2019-02-06T12:18:06.634Z,12.83
2019-02-06T12:20:35.732Z,7.00
2019-02-06T12:23:04.735Z,16.57
2019-02-06T12:25:34.602Z,16.73
2019-02-06T12:28:05.205Z,7.73
2019-02-06T12:30:36.789Z,10.50
2019-02-06T12:33:05.914Z,13.73
2019-02-06T12:35:34.591Z,16.43
2019-02-06T12:38:03.272Z,28.63
2019-02-06T12:40:31.949Z,26.10
2019-02-06T12:43:00.560Z,23.53
2019-02-06T12:45:29.257Z,29.97
2019-02-06T12:47:57.878Z,26.33
2019-02-06T12:50:26.868Z,9.47
2019-02-06T12:52:57.673Z,7.40
2019-02-06T12:55:38.287Z,12.00
2019-02-06T12:58:08.289Z,13.40
2019-02-06T13:00:43.428Z,47.30
2019-02-06T13:03:12.081Z,39.73
2019-02-06T13:05:40.758Z,44.63
2019-02-06T13:08:09.376Z,24.60
2019-02-06T13:10:38.049Z,27.10
2019-02-06T13:13:06.943Z,29.07
2019-02-06T13:15:37.057Z,48.33
2019-02-06T13:18:05.897Z,26.40
2019-02-06T13:20:37.356Z,45.13
2019-02-06T13:23:06.845Z,72.40
2019-02-06T13:25:35.536Z,37.67
2019-02-06T13:28:04.333Z,13.77
2019-02-06T13:30:38.019Z,25.17
2019-02-06T13:33:11.759Z,14.43
2019-02-06T13:35:40.618Z,17.70
2019-02-06T13:38:09.245Z,42.80
2019-02-06T13:40:45.723Z,40.03
2019-02-06T13:43:08.382Z,30.87
2019-02-06T13:45:40.120Z,36.40
2019-02-06T13:48:08.808Z,28.47
2019-02-06T13:50:37.421Z,25.93
2019-02-06T13:53:06.220Z,29.43
2019-02-06T13:55:35.017Z,29.37
2019-02-06T13:58:04.284Z,22.97
2019-02-06T14:00:38.319Z,25.43
2019-02-06T14:03:07.290Z,25.70
2019-02-06T14:05:36.043Z,24.80
2019-02-06T14:08:07.768Z,17.40
2019-02-06T14:10:36.547Z,25.93
2019-02-06T14:13:05.535Z,21.33
2019-02-06T14:15:40.120Z,21.13
2019-02-06T14:18:08.851Z,24.63
2019-02-06T14:20:37.522Z,14.73
2019-02-06T14:23:09.793Z,16.53
2019-02-06T14:25:47.145Z,17.57
2019-02-06T14:28:25.046Z,25.13
2019-02-06T14:31:19.345Z,21.77
2019-02-06T14:34:00.153Z,18.63
2019-02-06T14:36:51.476Z,14.57
2019-02-06T14:39:23.235Z,20.17
2019-02-06T14:42:03.598Z,18.53
2019-02-06T14:44:52.597Z,12.27
2019-02-06T14:47:39.459Z,17.63
2019-02-06T14:50:17.106Z,18.10
2019-02-06T14:53:02.644Z,32.87
2019-02-06T14:55:34.126Z,26.27
2019-02-06T14:58:05.847Z,15.73
2019-02-06T15:00:59.298Z,17.60
2019-02-06T15:03:31.281Z,27.77
2019-02-06T15:06:08.516Z,21.37
2019-02-06T15:08:43.089Z,13.00
2019-02-06T15:11:26.533Z,10.93
2019-02-06T15:14:01.102Z,9.27
2019-02-06T15:16:53.664Z,11.47
2019-02-06T15:19:30.980Z,11.20
2019-02-06T15:22:19.122Z,19.33
2019-02-06T15:25:08.998Z,13.93
2019-02-06T15:27:41.889Z,11.67
2019-02-06T15:30:34.046Z,14.00
2019-02-06T15:33:16.952Z,9.13
2019-02-06T15:35:48.634Z,12.03
2019-02-06T15:38:44.360Z,13.13
2019-02-06T15:41:31.249Z,10.40
2019-02-06T15:44:01.195Z,11.03
2019-02-06T15:46:32.938Z,17.63
2019-02-06T15:49:10.554Z,14.80
2019-02-06T15:52:00.947Z,17.20
2019-02-06T15:54:44.823Z,20.40
2019-02-06T15:57:48.582Z,36.03
2019-02-06T16:00:39.993Z,36.20
2019-02-06T16:03:25.911Z,38.47
2019-02-06T16:06:23.471Z,35.40
2019-02-06T16:09:02.807Z,33.93
2019-02-06T16:11:45.750Z,35.30
2019-02-06T16:14:41.887Z,19.10
2019-02-06T16:17:13.663Z,31.17
2019-02-06T16:20:04.834Z,90.10
2019-02-06T16:22:28.895Z,47.57
2019-02-06T16:25:00.926Z,43.10
2019-02-06T16:27:35.355Z,52.17
2019-02-06T16:30:12.784Z,26.80
2019-02-06T16:32:59.672Z,18.40
2019-02-06T16:35:43.671Z,12.17
2019-02-06T16:38:24.341Z,7.03
2019-02-06T16:41:12.442Z,9.40
2019-02-06T16:43:55.874Z,9.50
2019-02-06T16:46:32.926Z,11.50
2019-02-06T16:49:13.903Z,12.23
2019-02-06T16:51:59.933Z,13.80
2019-02-06T16:55:04.099Z,19.63
2019-02-06T16:57:38.865Z,10.90
2019-02-06T17:00:19.328Z,15.23
2019-02-06T17:03:06.379Z,12.13
2019-02-06T17:06:00.038Z,13.00
2019-02-06T17:08:41.715Z,24.47
2019-02-06T17:11:22.785Z,20.50
2019-02-06T17:14:12.592Z,18.90
2019-02-06T17:16:53.467Z,18.43
2019-02-06T17:19:43.422Z,12.13
2019-02-06T17:22:21.098Z,23.63
2019-02-06T17:25:09.544Z,19.37
2019-02-06T17:27:53.151Z,12.57
2019-02-06T17:30:30.648Z,14.60
2019-02-06T17:33:39.250Z,9.00
2019-02-06T17:36:16.228Z,9.80
2019-02-06T17:39:03.241Z,13.90
2019-02-06T17:41:37.796Z,7.67
2019-02-06T17:44:18.691Z,9.30
2019-02-06T17:46:56.259Z,10.93
2019-02-06T17:49:54.061Z,14.27
2019-02-06T17:52:31.127Z,14.17
2019-02-06T17:55:17.468Z,22.47
2019-02-06T17:57:48.224Z,9.13
2019-02-06T18:00:44.650Z,16.33
2019-02-06T18:03:15.547Z,14.10
2019-02-06T18:05:45.478Z,8.90
2019-02-06T18:08:14.144Z,9.07
2019-02-06T18:10:42.869Z,12.90
2019-02-06T18:13:11.576Z,9.57
2019-02-06T18:15:40.246Z,24.90
2019-02-06T18:18:08.975Z,26.43
2019-02-06T18:20:38.235Z,9.43
2019-02-06T18:23:07.322Z,10.23
2019-02-06T18:25:42.838Z,7.00
2019-02-06T18:28:12.006Z,11.13
2019-02-06T18:30:43.461Z,13.47
2019-02-06T18:33:18.796Z,8.53
2019-02-06T18:35:49.883Z,5.00
2019-02-06T18:38:18.772Z,6.47
2019-02-06T18:40:48.903Z,6.30
2019-02-06T18:43:17.649Z,9.80
2019-02-06T18:45:46.855Z,7.70
2019-02-06T18:48:15.526Z,8.70
2019-02-06T18:50:44.245Z,8.50
2019-02-06T18:53:13.528Z,22.90
2019-02-06T18:55:42.228Z,9.50
2019-02-06T18:58:10.896Z,10.40
2019-02-06T19:00:45.172Z,12.93
2019-02-06T19:03:22.983Z,55.80
2019-02-06T19:05:52.196Z,153.07
2019-02-06T19:08:25.902Z,57.10
2019-02-06T19:10:54.741Z,20.63
2019-02-06T19:13:24.366Z,14.90
2019-02-06T19:15:56.557Z,8.97
2019-02-06T19:18:23.524Z,8.60
2019-02-06T19:20:52.535Z,14.13
2019-02-06T19:23:22.455Z,6.80
2019-02-06T19:25:51.315Z,10.50
2019-02-06T19:28:20.262Z,5.30
2019-02-06T19:30:49.096Z,8.60
2019-02-06T19:33:17.990Z,9.13
2019-02-06T19:35:46.991Z,9.57
2019-02-06T19:38:16.725Z,14.20
2019-02-06T19:40:45.705Z,7.20
2019-02-06T19:43:14.449Z,9.60
2019-02-06T19:45:43.599Z,8.90
2019-02-06T19:48:16.255Z,16.30
2019-02-06T19:50:46.258Z,8.67
2019-02-06T19:53:15.567Z,9.83
2019-02-06T19:55:44.220Z,13.73
2019-02-06T19:58:13.435Z,14.90
2019-02-06T20:00:44.071Z,14.07
2019-02-06T20:03:12.926Z,13.13
2019-02-06T20:05:41.877Z,8.77
2019-02-06T20:08:14.031Z,12.27
2019-02-06T20:10:47.443Z,9.97
2019-02-06T20:13:17.400Z,8.03
2019-02-06T20:15:47.642Z,4.23
2019-02-06T20:18:18.962Z,5.83
2019-02-06T20:20:47.878Z,12.20
2019-02-06T20:23:17.326Z,11.93
2019-02-06T20:25:47.036Z,8.03
2019-02-06T20:28:16.369Z,8.50
2019-02-06T20:30:45.061Z,7.50
2019-02-06T20:33:14.333Z,10.13
2019-02-06T20:35:43.380Z,20.60
2019-02-06T20:38:15.643Z,13.03
2019-02-06T20:40:46.788Z,17.90
2019-02-06T20:43:22.195Z,16.07
2019-02-06T20:45:47.940Z,15.07
2019-02-06T20:48:18.328Z,23.73
2019-02-06T20:50:47.107Z,11.20
2019-02-06T20:53:16.388Z,10.43
2019-02-06T20:55:45.172Z,10.23
2019-02-06T20:58:13.884Z,12.27
2019-02-06T21:00:44.491Z,15.17
2019-02-06T21:03:13.443Z,15.23
2019-02-06T21:05:43.159Z,9.50
2019-02-06T21:08:12.080Z,17.40
2019-02-06T21:10:41.413Z,8.50
2019-02-06T21:13:11.990Z,10.03
2019-02-06T21:15:41.529Z,15.97
2019-02-06T21:18:10.349Z,17.20
2019-02-06T21:20:39.780Z,23.60
2019-02-06T21:23:08.893Z,12.17
2019-02-06T21:25:37.636Z,9.40
2019-02-06T21:28:06.984Z,14.13
2019-02-06T21:30:41.322Z,12.60
2019-02-06T21:33:10.218Z,12.30
2019-02-06T21:35:39.641Z,16.30
2019-02-06T21:38:10.179Z,11.90
2019-02-06T21:40:38.831Z,18.17
2019-02-06T21:43:09.208Z,11.37
2019-02-06T21:45:37.965Z,11.83
2019-02-06T21:48:07.234Z,13.17
2019-02-06T21:50:36.341Z,8.80
2019-02-06T21:53:05.127Z,11.23
2019-02-06T21:55:33.834Z,17.53
2019-02-06T21:58:02.532Z,14.40
2019-02-06T22:00:34.021Z,11.17
2019-02-06T22:03:02.758Z,17.27
2019-02-06T22:05:31.861Z,29.70
2019-02-06T22:08:00.473Z,10.10
2019-02-06T22:10:30.740Z,12.67
2019-02-06T22:12:59.431Z,19.23
2019-02-06T22:15:30.095Z,13.00
2019-02-06T22:18:00.309Z,16.97
2019-02-06T22:20:29.291Z,19.70
2019-02-06T22:22:58.018Z,48.40
2019-02-06T22:25:26.729Z,78.53
2019-02-06T22:27:55.464Z,32.03
2019-02-06T22:30:26.042Z,26.10
2019-02-06T22:32:54.742Z,30.83
2019-02-06T22:35:23.651Z,36.50
2019-02-06T22:37:52.344Z,19.80
2019-02-06T22:40:23.435Z,19.63
2019-02-06T22:42:52.043Z,31.63
2019-02-06T22:45:28.140Z,32.27
2019-02-06T22:47:56.769Z,25.93
2019-02-06T22:50:29.571Z,20.50
2019-02-06T22:52:58.188Z,26.80
2019-02-06T22:55:26.845Z,24.57
2019-02-06T22:57:55.532Z,19.17
2019-02-06T23:00:43.371Z,12.70
2019-02-06T23:03:12.072Z,14.90
2019-02-06T23:05:40.734Z,16.57
2019-02-06T23:08:09.421Z,16.47
2019-02-06T23:10:38.109Z,14.37
2019-02-06T23:13:07.606Z,12.23
2019-02-06T23:15:36.499Z,25.60
2019-02-06T23:18:05.717Z,18.50
2019-02-06T23:20:34.380Z,19.67
2019-02-06T23:23:02.999Z,10.90
2019-02-06T23:25:31.673Z,29.50
2019-02-06T23:28:00.305Z,17.57
2019-02-06T23:30:29.308Z,14.63
2019-02-06T23:32:57.994Z,11.77
2019-02-06T23:35:26.624Z,16.07
2019-02-06T23:37:55.243Z,11.20
2019-02-06T23:40:23.915Z,12.30
2019-02-06T23:42:52.546Z,10.63
2019-02-06T23:45:21.693Z,12.37
2019-02-06T23:47:50.398Z,11.40
2019-02-06T23:50:19.029Z,15.80
2019-02-06T23:52:47.721Z,13.07
2019-02-06T23:55:16.350Z,10.80
2019-02-06T23:57:44.974Z,11.30
